Aeroporto :
LOGIN :

Iscrizione | Disclaimer

   EN    FR    IT 

 










Sommario :    VFR   VFR Marginale   IFR   IFR Intensivo   IFR Molto Intensivo
Visibilità : 
Base nubi : 
>= 8 km
>= 3000ft
5 / 8 km
1000 / 3000 ft
1500m / 5 km
500 / 1000 ft
800 / 1500m
200 / 500 ft
< 800m
< 200 ft
Simboli :   Temporali  Nebbia  Neve Forte  Precipitazioni Forti  Vento > 20 kt
SIGMETs :   Varie  Temporali  Ghiacco  Turbolenza  Onda orograficha  Ceneri Vulcaniche






- Altitudine del aeroporto : 330 ft
- Codice IATA : LVA


LFOV - Laval-Entrammes

ULTIMO METAR :
  • 140530Z AUTO 11007KT 9999 FEW005 BKN023 BKN028 15/15 Q1005

METARs OBSOLETI :
  • 140500Z AUTO 11007KT 9999 BKN004 OVC024 15/15 Q1006
  • 140430Z AUTO 10005KT 9999 BKN005 BKN011 OVC018 15/14 Q1006
  • 140400Z AUTO 08005KT 050V160 9999 SCT007 BKN016 OVC023 15/14 Q1007
  • 140330Z AUTO 05004KT 9999 SCT015 OVC026 14/14 Q1007
  • 140300Z AUTO 05006KT 9999 FEW006/// BKN020/// BKN027/// ///CB 14/14 Q1007

TAF N/A



MetMap, La meteo Aeronautica in un colpo d'occhio ! - Copyright ORBIFLY Dicembre 2007 - Disclaimer

ORBIFLY MET'MAP TEAM :

Programmazione e sviluppo : Alexandra Zaïnal
Concezione e sviluppo : Baudouin d'Aumeries
Co-Programmazione e sviluppo : Marc-Olivier Méhu
Supporto tecnico e logistico : Manuel Goepfert
Aiuto per la traduzione : Arnaldo La Scala

Contatto : metmap@orbifly.com




FONTI E CREDITI :

   NOAA